createdAt,value
2018-05-11T00:00:51.006Z,15.31
2018-05-11T00:03:18.453Z,15.36
2018-05-11T00:05:45.856Z,15.38
2018-05-11T00:08:13.268Z,15.44
2018-05-11T00:10:40.677Z,15.46
2018-05-11T00:13:08.097Z,15.48
2018-05-11T00:15:35.500Z,15.42
2018-05-11T00:18:02.928Z,15.38
2018-05-11T00:20:30.332Z,15.33
2018-05-11T00:22:57.748Z,15.29
2018-05-11T00:25:25.161Z,15.26
2018-05-11T00:27:52.577Z,15.24
2018-05-11T00:30:19.984Z,15.23
2018-05-11T00:32:47.401Z,15.19
2018-05-11T00:35:14.833Z,15.24
2018-05-11T00:37:42.252Z,15.18
2018-05-11T00:40:09.661Z,15.15
2018-05-11T00:42:37.080Z,15.12
2018-05-11T00:45:04.488Z,15.14
2018-05-11T00:47:31.940Z,15.16
2018-05-11T00:49:59.353Z,15.23
2018-05-11T00:52:26.765Z,15.30
2018-05-11T00:54:54.173Z,15.29
2018-05-11T00:57:21.591Z,15.31
2018-05-11T00:59:49.004Z,15.39
2018-05-11T01:02:16.413Z,15.42
2018-05-11T01:04:43.817Z,15.37
2018-05-11T01:07:11.228Z,15.40
2018-05-11T01:09:38.645Z,15.35
2018-05-11T01:12:06.069Z,15.31
2018-05-11T01:14:33.481Z,15.33
2018-05-11T01:17:00.991Z,15.31
2018-05-11T01:19:28.302Z,15.27
2018-05-11T01:21:55.717Z,15.27
2018-05-11T01:24:23.119Z,15.24
2018-05-11T01:26:50.545Z,15.18
2018-05-11T01:29:17.953Z,15.15
2018-05-11T01:31:45.392Z,15.15
2018-05-11T01:34:12.797Z,15.17
2018-05-11T01:36:40.232Z,15.17
2018-05-11T01:39:07.642Z,15.15
2018-05-11T01:41:35.049Z,15.13
2018-05-11T01:44:02.456Z,15.15
2018-05-11T01:46:29.865Z,15.16
2018-05-11T01:48:57.334Z,15.20
2018-05-11T01:51:24.704Z,15.18
2018-05-11T01:53:52.136Z,15.18
2018-05-11T01:56:19.536Z,15.18
2018-05-11T01:58:46.948Z,15.12
2018-05-11T02:01:14.357Z,15.04
2018-05-11T02:03:41.777Z,15.08
2018-05-11T02:06:09.185Z,15.12
2018-05-11T02:08:36.596Z,15.13
2018-05-11T02:11:04.000Z,15.14
2018-05-11T02:13:31.413Z,15.11
2018-05-11T02:15:58.820Z,15.06
2018-05-11T02:18:26.228Z,15.04
2018-05-11T02:20:53.636Z,15.06
2018-05-11T02:23:21.052Z,15.02
2018-05-11T02:25:48.544Z,15.07
2018-05-11T02:28:15.873Z,15.13
2018-05-11T02:30:43.277Z,15.16
2018-05-11T02:33:10.717Z,15.22
2018-05-11T02:35:38.120Z,15.25
2018-05-11T02:38:05.540Z,15.25
2018-05-11T02:40:32.944Z,15.28
2018-05-11T02:43:00.368Z,15.31
2018-05-11T02:45:27.772Z,15.35
2018-05-11T02:47:55.180Z,15.38
2018-05-11T02:50:22.583Z,15.38
2018-05-11T02:52:50.005Z,15.37
2018-05-11T02:55:17.413Z,15.34
2018-05-11T02:57:44.832Z,15.35
2018-05-11T03:00:12.255Z,15.35
2018-05-11T03:02:39.661Z,15.31
2018-05-11T03:05:07.070Z,15.30
2018-05-11T03:07:34.475Z,15.32
2018-05-11T03:10:01.898Z,15.33
2018-05-11T03:12:29.298Z,15.35
2018-05-11T03:14:56.725Z,15.35
2018-05-11T03:17:24.124Z,15.35
2018-05-11T03:19:51.536Z,15.35
2018-05-11T03:22:18.940Z,15.34
2018-05-11T03:24:46.358Z,15.29
2018-05-11T03:27:13.764Z,15.26
2018-05-11T03:29:41.186Z,15.21
2018-05-11T03:32:08.580Z,15.16
2018-05-11T03:34:36.010Z,15.09
2018-05-11T03:37:03.416Z,15.04
2018-05-11T03:39:30.831Z,15.02
2018-05-11T03:41:58.236Z,14.98
2018-05-11T03:44:25.640Z,14.92
2018-05-11T03:46:53.061Z,14.93
2018-05-11T03:49:20.469Z,14.94
2018-05-11T03:51:47.880Z,14.98
2018-05-11T03:54:15.300Z,15.03
2018-05-11T03:56:42.709Z,15.07
2018-05-11T03:59:10.124Z,15.09
2018-05-11T04:01:49.467Z,15.09
2018-05-11T04:04:28.611Z,15.08
2018-05-11T04:07:08.636Z,15.07
2018-05-11T04:09:36.048Z,14.96
2018-05-11T04:12:03.459Z,14.95
2018-05-11T04:14:30.868Z,14.95
2018-05-11T04:16:58.277Z,14.95
2018-05-11T04:19:25.696Z,14.93
2018-05-11T04:21:53.109Z,14.94
2018-05-11T04:24:20.516Z,14.95
2018-05-11T04:26:47.925Z,14.92
2018-05-11T04:29:15.360Z,14.90
2018-05-11T04:31:42.767Z,14.91
2018-05-11T04:34:10.189Z,14.90
2018-05-11T04:36:37.591Z,14.88
2018-05-11T04:39:05.816Z,14.87
2018-05-11T04:41:33.229Z,14.88
2018-05-11T04:44:00.640Z,14.88
2018-05-11T04:46:28.044Z,14.85
2018-05-11T04:48:55.470Z,14.81
2018-05-11T04:51:22.882Z,14.82
2018-05-11T04:53:50.308Z,14.78
2018-05-11T04:56:17.716Z,14.75
2018-05-11T04:58:45.124Z,14.79
2018-05-11T05:01:12.546Z,14.86
2018-05-11T05:03:39.954Z,14.94
2018-05-11T05:06:07.377Z,14.95
2018-05-11T05:08:34.780Z,15.03
2018-05-11T05:11:02.203Z,15.12
2018-05-11T05:13:29.605Z,15.20
2018-05-11T05:15:57.011Z,15.28
2018-05-11T05:18:24.425Z,15.23
2018-05-11T05:20:51.835Z,15.25
2018-05-11T05:23:19.249Z,15.33
2018-05-11T05:25:46.683Z,15.40
2018-05-11T05:28:14.084Z,15.34
2018-05-11T05:30:41.496Z,15.41
2018-05-11T05:35:41.712Z,15.45
2018-05-11T05:38:09.114Z,15.50
2018-05-11T05:40:36.570Z,15.55
2018-05-11T05:43:03.980Z,15.57
2018-05-11T05:45:31.388Z,15.61
2018-05-11T05:47:58.805Z,15.64
2018-05-11T05:50:26.220Z,15.70
2018-05-11T05:52:53.632Z,15.75
2018-05-11T05:55:21.053Z,15.75
2018-05-11T05:57:48.461Z,15.75
2018-05-11T06:00:15.875Z,15.78
2018-05-11T06:02:43.285Z,15.86
2018-05-11T06:05:10.700Z,15.88
2018-05-11T06:07:38.116Z,15.91
2018-05-11T06:10:05.528Z,15.97
2018-05-11T06:12:32.924Z,15.98
2018-05-11T06:15:00.344Z,15.93
2018-05-11T06:17:27.751Z,15.94
2018-05-11T06:19:55.173Z,15.94
2018-05-11T06:22:22.571Z,15.90
2018-05-11T06:24:50.045Z,15.93
2018-05-11T06:27:17.401Z,16.07
2018-05-11T06:29:44.818Z,16.14
2018-05-11T06:32:12.217Z,16.16
2018-05-11T06:34:39.629Z,16.05
2018-05-11T06:37:07.040Z,15.92
2018-05-11T06:39:34.447Z,15.91
2018-05-11T06:42:01.863Z,15.90
2018-05-11T06:44:29.277Z,15.87
2018-05-11T06:46:56.685Z,15.87
2018-05-11T06:49:24.094Z,16.00
2018-05-11T06:51:51.508Z,16.04
2018-05-11T06:54:18.912Z,16.09
2018-05-11T06:56:46.333Z,16.10
2018-05-11T06:59:13.735Z,16.22
2018-05-11T07:01:41.255Z,16.38
2018-05-11T07:04:08.565Z,16.52
2018-05-11T07:06:35.988Z,16.57
2018-05-11T07:09:03.410Z,16.70
2018-05-11T07:11:30.820Z,16.85
2018-05-11T07:13:58.237Z,16.95
2018-05-11T07:16:25.649Z,17.02
2018-05-11T07:18:53.060Z,17.19
2018-05-11T07:21:20.478Z,17.37
2018-05-11T07:23:47.887Z,17.50
2018-05-11T07:26:15.309Z,17.76
2018-05-11T07:28:42.717Z,18.12
2018-05-11T07:31:10.132Z,18.50
2018-05-11T07:33:37.537Z,18.83
2018-05-11T07:36:04.953Z,19.08
2018-05-11T07:38:32.357Z,19.11
2018-05-11T07:40:59.770Z,19.29
2018-05-11T07:43:27.271Z,19.61
2018-05-11T07:45:54.593Z,20.00
2018-05-11T07:48:22.029Z,20.35
2018-05-11T07:50:49.449Z,20.62
2018-05-11T07:53:16.852Z,20.89
2018-05-11T07:55:44.281Z,21.13
2018-05-11T07:58:11.698Z,21.26
2018-05-11T08:00:39.112Z,21.44
2018-05-11T08:03:06.530Z,21.51
2018-05-11T08:05:33.948Z,21.64
2018-05-11T08:08:01.357Z,21.53
2018-05-11T08:10:28.786Z,21.35
2018-05-11T08:12:56.204Z,21.35
2018-05-11T08:15:23.616Z,21.38
2018-05-11T08:17:51.049Z,21.33
2018-05-11T08:20:18.468Z,21.44
2018-05-11T08:22:45.879Z,21.50
2018-05-11T08:25:13.296Z,21.46
2018-05-11T08:27:40.722Z,21.67
2018-05-11T08:30:08.129Z,21.93
2018-05-11T08:32:35.565Z,21.98
2018-05-11T08:35:02.977Z,21.94
2018-05-11T08:37:30.413Z,21.97
2018-05-11T08:39:57.828Z,22.26
2018-05-11T08:42:25.243Z,22.37
2018-05-11T08:44:52.667Z,22.56
2018-05-11T08:47:20.102Z,22.87
2018-05-11T08:49:47.544Z,23.02
2018-05-11T08:52:14.952Z,23.17
2018-05-11T08:54:42.373Z,23.28
2018-05-11T08:57:09.795Z,23.54
2018-05-11T08:59:37.203Z,23.76
2018-05-11T09:02:04.629Z,23.95
2018-05-11T09:04:32.040Z,24.15
2018-05-11T09:06:59.472Z,24.34
2018-05-11T09:09:26.886Z,24.51
2018-05-11T09:11:54.301Z,24.47
2018-05-11T09:14:21.721Z,24.46
2018-05-11T09:16:49.140Z,24.58
2018-05-11T09:19:16.561Z,24.77
2018-05-11T09:21:44.060Z,24.93
2018-05-11T09:24:11.396Z,25.11
2018-05-11T09:26:38.820Z,25.21
2018-05-11T09:29:06.240Z,25.45
2018-05-11T09:31:33.656Z,25.67
2018-05-11T09:34:01.080Z,25.85
2018-05-11T09:36:28.499Z,25.97
2018-05-11T09:38:55.919Z,26.15
2018-05-11T09:41:23.337Z,26.16
2018-05-11T09:43:50.749Z,26.28
2018-05-11T09:46:18.168Z,26.50
2018-05-11T09:48:45.621Z,26.71
2018-05-11T09:51:13.034Z,26.68
2018-05-11T09:53:40.460Z,26.81
2018-05-11T09:56:07.868Z,26.84
2018-05-11T09:58:35.298Z,26.86
2018-05-11T10:01:02.715Z,27.01
2018-05-11T10:03:30.137Z,27.21
2018-05-11T10:05:57.547Z,27.48
2018-05-11T10:08:24.989Z,27.67
2018-05-11T10:10:52.397Z,27.81
2018-05-11T10:13:19.825Z,28.03
2018-05-11T10:15:47.241Z,28.35
2018-05-11T10:18:14.669Z,28.57
2018-05-11T10:20:42.191Z,28.74
2018-05-11T10:23:09.528Z,28.62
2018-05-11T10:25:36.942Z,28.09
2018-05-11T10:28:04.393Z,27.61
2018-05-11T10:30:31.800Z,27.17
2018-05-11T10:32:59.229Z,26.88
2018-05-11T10:35:26.642Z,26.81
2018-05-11T10:37:54.072Z,26.96
2018-05-11T10:40:21.480Z,26.72
2018-05-11T10:42:48.900Z,25.99
2018-05-11T10:45:16.324Z,25.42
2018-05-11T10:47:43.745Z,25.00
2018-05-11T10:50:11.166Z,24.84
2018-05-11T10:52:38.584Z,24.81
2018-05-11T10:55:06.003Z,24.88
2018-05-11T10:57:33.428Z,24.85
2018-05-11T11:00:00.848Z,24.73
2018-05-11T11:02:28.288Z,24.73
2018-05-11T11:04:55.689Z,25.06
2018-05-11T11:07:23.112Z,25.44
2018-05-11T11:09:50.529Z,25.99
2018-05-11T11:12:17.952Z,26.46
2018-05-11T11:14:45.372Z,26.50
2018-05-11T11:17:12.801Z,26.48
2018-05-11T11:19:40.209Z,26.37
2018-05-11T11:22:07.620Z,26.40
2018-05-11T11:24:35.043Z,26.50
2018-05-11T11:27:02.478Z,26.35
2018-05-11T11:29:29.896Z,26.04
2018-05-11T11:31:57.312Z,25.94
2018-05-11T11:34:24.747Z,26.18
2018-05-11T11:36:52.222Z,26.30
2018-05-11T11:39:19.567Z,26.41
2018-05-11T11:41:47.044Z,26.26
2018-05-11T11:44:14.444Z,25.88
2018-05-11T11:46:41.840Z,25.84
2018-05-11T11:49:09.256Z,25.42
2018-05-11T11:51:36.673Z,25.18
2018-05-11T11:54:04.093Z,25.03
2018-05-11T11:56:31.548Z,24.96
2018-05-11T11:58:58.940Z,24.95
2018-05-11T12:01:26.349Z,24.93
2018-05-11T12:03:53.784Z,24.84
2018-05-11T12:06:21.201Z,24.78
2018-05-11T12:08:48.629Z,24.74
2018-05-11T12:11:16.048Z,24.67
2018-05-11T12:13:43.468Z,24.62
2018-05-11T12:16:10.896Z,24.59
2018-05-11T12:18:38.311Z,24.59
2018-05-11T12:21:05.724Z,24.55
2018-05-11T12:23:33.152Z,24.50
2018-05-11T12:26:00.633Z,24.53
2018-05-11T12:28:27.997Z,24.55
2018-05-11T12:30:55.412Z,24.54
2018-05-11T12:33:22.869Z,24.49
2018-05-11T12:35:50.280Z,24.46
2018-05-11T12:38:17.708Z,24.30
2018-05-11T12:40:45.129Z,24.22
2018-05-11T12:43:12.588Z,24.31
2018-05-11T12:45:40.001Z,24.43
2018-05-11T12:48:07.425Z,24.52
2018-05-11T12:50:34.846Z,24.70
2018-05-11T12:53:02.270Z,24.85
2018-05-11T12:55:29.675Z,24.90
2018-05-11T12:57:57.091Z,24.86
2018-05-11T13:00:24.503Z,24.80
2018-05-11T13:02:51.927Z,24.80
2018-05-11T13:05:19.356Z,24.77
2018-05-11T13:07:46.781Z,24.70
2018-05-11T13:10:14.200Z,24.60
2018-05-11T13:12:41.613Z,24.46
2018-05-11T13:15:09.033Z,24.38
2018-05-11T13:17:36.448Z,24.32
2018-05-11T13:20:03.877Z,24.23
2018-05-11T13:22:31.289Z,24.20
2018-05-11T13:24:58.708Z,24.22
2018-05-11T13:27:26.124Z,24.25
2018-05-11T13:29:53.541Z,24.16
2018-05-11T13:32:20.980Z,24.24
2018-05-11T13:34:48.405Z,24.31
2018-05-11T13:37:15.824Z,24.44
2018-05-11T13:39:43.244Z,24.54
2018-05-11T13:42:10.691Z,24.60
2018-05-11T13:44:38.097Z,24.72
2018-05-11T13:47:05.556Z,24.70
2018-05-11T13:49:32.976Z,24.54
2018-05-11T13:52:00.389Z,24.47
2018-05-11T13:54:27.819Z,24.45
2018-05-11T13:56:55.229Z,24.43
2018-05-11T13:59:22.656Z,24.44
2018-05-11T14:01:50.065Z,24.44
2018-05-11T14:04:17.488Z,24.44
2018-05-11T14:06:44.901Z,24.45
2018-05-11T14:09:12.316Z,24.46
2018-05-11T14:11:39.757Z,24.39
2018-05-11T14:14:07.203Z,24.33
2018-05-11T14:16:34.658Z,24.19
2018-05-11T14:19:02.080Z,24.04
2018-05-11T14:21:29.499Z,24.02
2018-05-11T14:23:56.912Z,24.00
2018-05-11T14:26:24.328Z,23.97
2018-05-11T14:28:51.747Z,24.03
2018-05-11T14:31:19.190Z,24.09
2018-05-11T14:33:46.600Z,24.09
2018-05-11T14:36:14.017Z,24.02
2018-05-11T14:38:41.432Z,23.95
2018-05-11T14:41:08.860Z,23.90
2018-05-11T14:43:36.273Z,23.72
2018-05-11T14:46:03.700Z,23.50
2018-05-11T14:48:31.119Z,23.49
2018-05-11T14:50:58.543Z,23.74
2018-05-11T14:53:25.948Z,24.05
2018-05-11T14:55:53.380Z,24.45
2018-05-11T14:58:20.791Z,24.78
2018-05-11T15:00:48.217Z,24.97
2018-05-11T15:03:15.624Z,25.14
2018-05-11T15:05:43.052Z,25.14
2018-05-11T15:08:10.462Z,24.94
2018-05-11T15:10:37.876Z,24.71
2018-05-11T15:13:05.293Z,24.58
2018-05-11T15:15:32.731Z,24.49
2018-05-11T15:18:00.126Z,24.32
2018-05-11T15:20:27.556Z,24.21
2018-05-11T15:22:54.964Z,24.14
2018-05-11T15:25:22.412Z,23.92
2018-05-11T15:27:49.820Z,23.86
2018-05-11T15:30:17.246Z,23.85
2018-05-11T15:32:44.660Z,23.86
2018-05-11T15:35:12.089Z,23.84
2018-05-11T15:37:39.513Z,23.86
2018-05-11T15:40:06.932Z,23.87
2018-05-11T15:42:34.360Z,23.89
2018-05-11T15:45:01.783Z,23.86
2018-05-11T15:47:29.195Z,23.86
2018-05-11T15:49:56.616Z,23.82
2018-05-11T15:52:24.020Z,23.84
2018-05-11T15:54:51.446Z,23.86
2018-05-11T15:57:18.860Z,23.90
2018-05-11T15:59:46.283Z,23.88
2018-05-11T16:02:13.696Z,23.83
2018-05-11T16:04:41.122Z,23.84
2018-05-11T16:07:08.537Z,23.84
2018-05-11T16:09:35.954Z,23.77
2018-05-11T16:12:03.359Z,23.74
2018-05-11T16:14:30.784Z,23.73
2018-05-11T16:16:58.199Z,23.75
2018-05-11T16:19:25.643Z,23.75
2018-05-11T16:21:53.043Z,23.76
2018-05-11T16:24:20.460Z,23.76
2018-05-11T16:26:47.888Z,23.67
2018-05-11T16:29:15.308Z,23.58
2018-05-11T16:31:42.729Z,23.48
2018-05-11T16:34:10.144Z,23.41
2018-05-11T16:36:37.565Z,23.36
2018-05-11T16:39:05.809Z,23.37
2018-05-11T16:41:33.233Z,23.37
2018-05-11T16:44:00.644Z,23.40
2018-05-11T18:05:06.676Z,21.19
2018-05-11T18:07:34.088Z,21.20
2018-05-11T18:10:01.565Z,21.24
2018-05-11T18:12:29.007Z,21.27
2018-05-11T18:14:56.335Z,21.30
2018-05-11T18:17:23.748Z,21.34
2018-05-11T18:19:51.158Z,21.37
2018-05-11T18:22:18.590Z,21.41
2018-05-11T18:24:46.002Z,21.47
2018-05-11T18:27:13.425Z,21.51
2018-05-11T18:29:40.845Z,21.54
2018-05-11T18:32:08.264Z,21.55
2018-05-11T18:34:35.668Z,21.54
2018-05-11T18:37:03.098Z,21.52
2018-05-11T18:39:30.496Z,21.52
2018-05-11T18:41:57.917Z,21.50
2018-05-11T18:44:25.334Z,21.49
2018-05-11T18:46:52.859Z,21.45
2018-05-11T18:49:20.190Z,21.40
2018-05-11T18:51:47.600Z,21.36
2018-05-11T18:54:15.198Z,21.30
2018-05-11T18:56:42.435Z,21.26
2018-05-11T18:59:09.843Z,21.22
2018-05-11T19:01:37.279Z,21.16
2018-05-11T19:04:04.664Z,21.08
2018-05-11T19:06:32.089Z,21.00
2018-05-11T19:08:59.602Z,20.96
2018-05-11T19:11:26.930Z,20.92
2018-05-11T19:13:54.348Z,20.77
2018-05-11T19:16:21.778Z,20.65
2018-05-11T19:18:49.188Z,20.48
2018-05-11T19:21:16.600Z,20.34
2018-05-11T19:23:44.017Z,20.30
2018-05-11T19:26:11.527Z,20.21
2018-05-11T19:28:38.852Z,20.14
2018-05-11T19:31:06.260Z,20.06
2018-05-11T19:33:33.820Z,20.03
2018-05-11T19:36:01.462Z,19.93
2018-05-11T19:38:28.864Z,19.84
2018-05-11T19:40:56.275Z,19.82
2018-05-11T19:43:23.688Z,19.74
2018-05-11T19:45:51.104Z,19.67
2018-05-11T19:48:18.525Z,19.61
2018-05-11T19:50:45.936Z,19.58
2018-05-11T19:53:13.356Z,19.48
2018-05-11T19:55:40.760Z,19.33
2018-05-11T19:58:08.184Z,19.25
2018-05-11T20:00:35.601Z,19.18
2018-05-11T20:03:03.021Z,19.14
2018-05-11T20:05:30.428Z,19.09
2018-05-11T20:07:57.860Z,19.08
2018-05-11T20:10:25.272Z,19.07
2018-05-11T20:12:52.697Z,19.08
2018-05-11T20:15:20.105Z,19.08
2018-05-11T20:17:47.524Z,18.99
2018-05-11T20:20:14.928Z,18.90
2018-05-11T20:22:42.349Z,18.82
2018-05-11T20:25:09.752Z,18.71
2018-05-11T20:27:37.170Z,18.69
2018-05-11T20:30:04.576Z,18.65
2018-05-11T20:32:32.030Z,18.60
2018-05-11T20:34:59.408Z,18.55
2018-05-11T20:37:26.824Z,18.46
2018-05-11T20:39:54.237Z,18.38
2018-05-11T20:42:21.648Z,18.36
2018-05-11T20:44:49.056Z,18.35
2018-05-11T20:47:16.477Z,18.33
2018-05-11T20:49:43.885Z,18.33
2018-05-11T20:52:11.315Z,18.25
2018-05-11T20:54:38.859Z,18.16
2018-05-11T20:57:06.267Z,18.16
2018-05-11T20:59:33.677Z,18.15
2018-05-11T21:02:01.090Z,18.20
2018-05-11T21:04:28.508Z,18.29
2018-05-11T21:06:55.917Z,18.31
2018-05-11T21:09:23.331Z,18.26
2018-05-11T21:11:50.741Z,18.30
2018-05-11T21:14:18.161Z,18.31
2018-05-11T21:16:45.569Z,18.30
2018-05-11T21:19:12.989Z,18.29
2018-05-11T21:21:40.396Z,18.34
2018-05-11T21:24:07.811Z,18.35
2018-05-11T21:26:35.207Z,18.37
2018-05-11T21:29:02.636Z,18.29
2018-05-11T21:31:30.044Z,18.30
2018-05-11T21:33:57.462Z,18.34
2018-05-11T21:36:24.869Z,18.37
2018-05-11T21:38:52.288Z,18.38
2018-05-11T21:41:19.696Z,18.41
2018-05-11T21:43:47.104Z,18.44
2018-05-11T21:46:14.513Z,18.38
2018-05-11T21:48:41.937Z,18.38
2018-05-11T21:51:09.341Z,18.43
2018-05-11T21:53:36.759Z,18.44
2018-05-11T21:56:04.161Z,18.49
2018-05-11T21:58:31.576Z,18.45
2018-05-11T22:00:58.979Z,18.43
2018-05-11T22:03:26.395Z,18.42
2018-05-11T22:05:53.898Z,18.46
2018-05-11T22:08:21.224Z,18.50
2018-05-11T22:10:48.633Z,18.52
2018-05-11T22:13:16.048Z,18.52
2018-05-11T22:15:43.469Z,18.51
2018-05-11T22:18:10.880Z,18.44
2018-05-11T22:20:38.288Z,18.35
2018-05-11T22:23:05.708Z,18.36
2018-05-11T22:25:33.111Z,18.35
2018-05-11T22:28:00.530Z,18.35
2018-05-11T22:30:27.982Z,18.37
2018-05-11T22:32:55.356Z,18.34
2018-05-11T22:35:22.762Z,18.32
2018-05-11T22:37:50.181Z,18.24
2018-05-11T22:40:17.597Z,18.16
2018-05-11T22:42:45.002Z,18.18
2018-05-11T22:45:12.417Z,18.20
2018-05-11T22:47:39.825Z,18.20
2018-05-11T22:50:07.241Z,18.18
2018-05-11T22:52:34.643Z,18.15
2018-05-11T22:55:02.060Z,18.16
2018-05-11T22:57:29.476Z,18.14
2018-05-11T22:59:56.912Z,18.04
2018-05-11T23:02:24.317Z,18.00
2018-05-11T23:04:51.738Z,17.96
2018-05-11T23:07:19.144Z,17.95
2018-05-11T23:09:46.561Z,17.99
2018-05-11T23:12:13.968Z,18.03
2018-05-11T23:14:41.393Z,18.06
2018-05-11T23:17:08.833Z,18.09
2018-05-11T23:19:36.238Z,18.10
2018-05-11T23:22:03.649Z,18.09
2018-05-11T23:24:31.052Z,18.08
2018-05-11T23:26:58.454Z,18.05
2018-05-11T23:29:25.868Z,18.04
2018-05-11T23:31:53.272Z,18.02
2018-05-11T23:34:20.694Z,17.98
2018-05-11T23:36:48.105Z,17.93
2018-05-11T23:39:15.517Z,17.88
2018-05-11T23:41:42.929Z,17.84
2018-05-11T23:44:10.347Z,17.80
2018-05-11T23:46:37.776Z,17.75
2018-05-11T23:49:05.184Z,17.69
2018-05-11T23:51:32.602Z,17.64
2018-05-11T23:54:00.024Z,17.61
2018-05-11T23:56:27.424Z,17.53
2018-05-11T23:58:54.844Z,17.48
